sensor_id;sensor_type;location;lat;lon;timestamp;pressure;altitude;pressure_sealevel;temperature;humidity
3428;BME280;1727;42.624;23.406;2022-11-12T00:00:07;96214.69;;;11.32;92.02
3428;BME280;1727;42.624;23.406;2022-11-12T00:02:34;96208.38;;;11.34;91.11
3428;BME280;1727;42.624;23.406;2022-11-12T00:05:01;96219.72;;;11.35;92.29
3428;BME280;1727;42.624;23.406;2022-11-12T00:07:28;96202.38;;;11.32;92.28
3428;BME280;1727;42.624;23.406;2022-11-12T00:09:54;96202.38;;;11.32;92.13
3428;BME280;1727;42.624;23.406;2022-11-12T00:12:23;96200.41;;;11.36;92.10
3428;BME280;1727;42.624;23.406;2022-11-12T00:14:49;96194.19;;;11.37;92.48
3428;BME280;1727;42.624;23.406;2022-11-12T00:17:16;96192.56;;;11.22;91.85
3428;BME280;1727;42.624;23.406;2022-11-12T00:19:43;96201.28;;;11.22;92.22
3428;BME280;1727;42.624;23.406;2022-11-12T00:22:10;96201.19;;;11.24;92.90
3428;BME280;1727;42.624;23.406;2022-11-12T00:24:36;96198.47;;;11.25;92.71
3428;BME280;1727;42.624;23.406;2022-11-12T00:27:03;96206.16;;;11.28;92.31
3428;BME280;1727;42.624;23.406;2022-11-12T00:29:31;96210.38;;;11.31;93.14
3428;BME280;1727;42.624;23.406;2022-11-12T00:31:58;96211.00;;;11.34;92.10
3428;BME280;1727;42.624;23.406;2022-11-12T00:34:25;96205.66;;;11.36;92.55
3428;BME280;1727;42.624;23.406;2022-11-12T00:36:52;96210.91;;;11.36;92.94
3428;BME280;1727;42.624;23.406;2022-11-12T00:39:18;96215.75;;;11.42;93.36
3428;BME280;1727;42.624;23.406;2022-11-12T00:41:45;96215.00;;;11.40;93.84
3428;BME280;1727;42.624;23.406;2022-11-12T00:44:12;96198.59;;;11.36;93.40
3428;BME280;1727;42.624;23.406;2022-11-12T00:46:40;96208.28;;;11.36;92.77
3428;BME280;1727;42.624;23.406;2022-11-12T00:49:07;96199.66;;;11.34;93.50
3428;BME280;1727;42.624;23.406;2022-11-12T00:51:34;96199.56;;;11.35;94.25
3428;BME280;1727;42.624;23.406;2022-11-12T00:54:01;96204.59;;;11.38;94.56
3428;BME280;1727;42.624;23.406;2022-11-12T00:56:28;96205.22;;;11.42;93.89
3428;BME280;1727;42.624;23.406;2022-11-12T00:58:56;96201.66;;;11.43;94.38
3428;BME280;1727;42.624;23.406;2022-11-12T01:01:23;96199.66;;;11.46;94.59
3428;BME280;1727;42.624;23.406;2022-11-12T01:03:52;96188.09;;;11.49;94.22
3428;BME280;1727;42.624;23.406;2022-11-12T01:06:21;96177.38;;;11.52;94.66
3428;BME280;1727;42.624;23.406;2022-11-12T01:08:49;96170.44;;;11.51;94.40
3428;BME280;1727;42.624;23.406;2022-11-12T01:11:18;96175.78;;;11.49;94.93
3428;BME280;1727;42.624;23.406;2022-11-12T01:13:51;96175.06;;;11.47;93.97
3428;BME280;1727;42.624;23.406;2022-11-12T01:16:20;96180.31;;;11.47;94.17
3428;BME280;1727;42.624;23.406;2022-11-12T01:18:52;96178.63;;;11.46;94.48
3428;BME280;1727;42.624;23.406;2022-11-12T01:21:21;96184.72;;;11.47;93.66
3428;BME280;1727;42.624;23.406;2022-11-12T01:23:48;96180.31;;;11.47;94.11
3428;BME280;1727;42.624;23.406;2022-11-12T01:26:17;96184.09;;;11.43;94.29
3428;BME280;1727;42.624;23.406;2022-11-12T01:28:44;96182.63;;;11.39;94.95
3428;BME280;1727;42.624;23.406;2022-11-12T01:31:13;96181.47;;;11.31;95.63
3428;BME280;1727;42.624;23.406;2022-11-12T01:33:41;96179.78;;;11.30;95.97
3428;BME280;1727;42.624;23.406;2022-11-12T01:36:10;96170.41;;;11.26;95.87
3428;BME280;1727;42.624;23.406;2022-11-12T01:38:38;96171.91;;;11.30;96.06
3428;BME280;1727;42.624;23.406;2022-11-12T01:41:07;96165.16;;;11.26;95.95
3428;BME280;1727;42.624;23.406;2022-11-12T01:43:34;96166.09;;;11.25;95.33
3428;BME280;1727;42.624;23.406;2022-11-12T01:46:03;96162.81;;;11.08;94.12
3428;BME280;1727;42.624;23.406;2022-11-12T01:48:34;96161.94;;;10.95;94.58
3428;BME280;1727;42.624;23.406;2022-11-12T01:51:04;96152.78;;;10.88;94.62
3428;BME280;1727;42.624;23.406;2022-11-12T01:53:36;96158.44;;;10.82;94.61
3428;BME280;1727;42.624;23.406;2022-11-12T01:56:06;96168.19;;;10.80;95.19
3428;BME280;1727;42.624;23.406;2022-11-12T01:58:34;96166.53;;;10.79;95.19
3428;BME280;1727;42.624;23.406;2022-11-12T02:01:02;96161.28;;;10.79;95.30
3428;BME280;1727;42.624;23.406;2022-11-12T02:03:29;96157.41;;;10.84;95.10
3428;BME280;1727;42.624;23.406;2022-11-12T02:05:58;96155.19;;;10.78;94.76
3428;BME280;1727;42.624;23.406;2022-11-12T02:08:27;96155.00;;;10.67;94.85
3428;BME280;1727;42.624;23.406;2022-11-12T02:10:56;96167.13;;;10.70;95.28
3428;BME280;1727;42.624;23.406;2022-11-12T02:13:23;96156.53;;;10.71;95.75
3428;BME280;1727;42.624;23.406;2022-11-12T02:16:08;96158.94;;;10.74;95.81
3428;BME280;1727;42.624;23.406;2022-11-12T02:18:36;96162.22;;;10.78;96.14
3428;BME280;1727;42.624;23.406;2022-11-12T02:21:04;96170.13;;;10.64;96.25
3428;BME280;1727;42.624;23.406;2022-11-12T02:23:34;96168.13;;;10.67;96.53
3428;BME280;1727;42.624;23.406;2022-11-12T02:26:02;96163.16;;;10.77;95.88
3428;BME280;1727;42.624;23.406;2022-11-12T02:28:30;96165.47;;;10.81;95.37
3428;BME280;1727;42.624;23.406;2022-11-12T02:30:57;96161.69;;;10.85;96.07
3428;BME280;1727;42.624;23.406;2022-11-12T02:33:24;96169.28;;;10.90;95.93
3428;BME280;1727;42.624;23.406;2022-11-12T02:35:51;96164.75;;;10.92;96.29
3428;BME280;1727;42.624;23.406;2022-11-12T02:38:18;96167.38;;;10.92;95.06
3428;BME280;1727;42.624;23.406;2022-11-12T02:40:46;96160.97;;;10.83;95.11
3428;BME280;1727;42.624;23.406;2022-11-12T02:43:12;96159.59;;;10.78;96.03
3428;BME280;1727;42.624;23.406;2022-11-12T02:45:39;96158.84;;;10.76;95.64
3428;BME280;1727;42.624;23.406;2022-11-12T02:48:06;96157.19;;;10.61;96.02
3428;BME280;1727;42.624;23.406;2022-11-12T02:50:33;96158.97;;;10.60;96.75
3428;BME280;1727;42.624;23.406;2022-11-12T02:53:00;96157.94;;;10.63;97.20
3428;BME280;1727;42.624;23.406;2022-11-12T02:55:26;96162.25;;;10.64;96.88
3428;BME280;1727;42.624;23.406;2022-11-12T02:57:58;96160.38;;;10.66;95.51
3428;BME280;1727;42.624;23.406;2022-11-12T03:00:25;96156.53;;;10.71;96.07
3428;BME280;1727;42.624;23.406;2022-11-12T03:02:52;96158.84;;;10.76;95.38
3428;BME280;1727;42.624;23.406;2022-11-12T03:05:25;96166.72;;;10.76;94.75
3428;BME280;1727;42.624;23.406;2022-11-12T03:07:55;96163.47;;;10.72;94.28
3428;BME280;1727;42.624;23.406;2022-11-12T03:10:23;96159.41;;;10.67;93.80
3428;BME280;1727;42.624;23.406;2022-11-12T03:12:50;96154.16;;;10.67;93.50
3428;BME280;1727;42.624;23.406;2022-11-12T03:15:18;96163.72;;;10.68;93.18
3428;BME280;1727;42.624;23.406;2022-11-12T03:17:45;96158.31;;;10.71;92.94
3428;BME280;1727;42.624;23.406;2022-11-12T03:20:12;96154.75;;;10.72;93.34
3428;BME280;1727;42.624;23.406;2022-11-12T03:22:39;96152.84;;;10.74;93.50
3428;BME280;1727;42.624;23.406;2022-11-12T03:25:07;96152.84;;;10.74;93.42
3428;BME280;1727;42.624;23.406;2022-11-12T03:27:34;96163.94;;;10.65;92.76
3428;BME280;1727;42.624;23.406;2022-11-12T03:30:01;96165.06;;;10.61;92.97
3428;BME280;1727;42.624;23.406;2022-11-12T03:32:29;96160.03;;;10.58;93.55
3428;BME280;1727;42.624;23.406;2022-11-12T03:34:56;96166.41;;;10.53;93.73
3428;BME280;1727;42.624;23.406;2022-11-12T03:37:23;96165.69;;;10.51;93.85
3428;BME280;1727;42.624;23.406;2022-11-12T03:39:49;96162.31;;;10.49;93.39
3428;BME280;1727;42.624;23.406;2022-11-12T03:42:16;96159.88;;;10.46;93.29
3428;BME280;1727;42.624;23.406;2022-11-12T03:44:43;96163.66;;;10.42;91.95
3428;BME280;1727;42.624;23.406;2022-11-12T03:47:10;96165.16;;;10.18;92.49
3428;BME280;1727;42.624;23.406;2022-11-12T03:49:38;96165.16;;;10.18;93.91
3428;BME280;1727;42.624;23.406;2022-11-12T03:52:05;96167.59;;;10.07;93.03
3428;BME280;1727;42.624;23.406;2022-11-12T03:54:31;96175.31;;;9.96;93.41
3428;BME280;1727;42.624;23.406;2022-11-12T03:56:58;96174.75;;;9.90;93.88
3428;BME280;1727;42.624;23.406;2022-11-12T03:59:25;96178.31;;;9.89;93.80
3428;BME280;1727;42.624;23.406;2022-11-12T04:01:52;96170.53;;;9.88;94.03
3428;BME280;1727;42.624;23.406;2022-11-12T04:04:18;96175.78;;;9.88;93.36
3428;BME280;1727;42.624;23.406;2022-11-12T04:06:46;96165.38;;;9.86;94.42
3428;BME280;1727;42.624;23.406;2022-11-12T04:09:30;96166.31;;;9.85;93.28
3428;BME280;1727;42.624;23.406;2022-11-12T04:11:57;96165.56;;;9.83;92.74
3428;BME280;1727;42.624;23.406;2022-11-12T04:14:45;96171.38;;;9.74;93.08
3428;BME280;1727;42.624;23.406;2022-11-12T04:17:10;96169.13;;;9.68;93.37
3428;BME280;1727;42.624;23.406;2022-11-12T04:19:54;96168.38;;;9.66;92.75
3428;BME280;1727;42.624;23.406;2022-11-12T04:22:40;96162.38;;;9.64;93.11
3428;BME280;1727;42.624;23.406;2022-11-12T04:25:07;96155.38;;;9.65;92.77
3428;BME280;1727;42.624;23.406;2022-11-12T04:27:51;96148.53;;;9.62;93.89
3428;BME280;1727;42.624;23.406;2022-11-12T04:30:17;96145.16;;;9.60;93.48
3428;BME280;1727;42.624;23.406;2022-11-12T04:32:48;96147.78;;;9.60;93.23
3428;BME280;1727;42.624;23.406;2022-11-12T04:35:16;96146.84;;;9.61;92.83
3428;BME280;1727;42.624;23.406;2022-11-12T04:37:44;96149.47;;;9.61;92.65
3428;BME280;1727;42.624;23.406;2022-11-12T04:40:13;96149.66;;;9.58;92.02
3428;BME280;1727;42.624;23.406;2022-11-12T04:43:04;96152.53;;;9.53;90.81
3428;BME280;1727;42.624;23.406;2022-11-12T04:45:50;96158.16;;;9.47;91.18
3428;BME280;1727;42.624;23.406;2022-11-12T04:48:18;96168.72;;;9.46;90.72
3428;BME280;1727;42.624;23.406;2022-11-12T04:50:47;96168.81;;;9.44;90.76
3428;BME280;1727;42.624;23.406;2022-11-12T04:53:17;96164.59;;;9.42;90.40
3428;BME280;1727;42.624;23.406;2022-11-12T04:55:44;96160.50;;;9.38;90.46
3428;BME280;1727;42.624;23.406;2022-11-12T04:58:10;96168.34;;;9.38;90.73
3428;BME280;1727;42.624;23.406;2022-11-12T05:00:37;96164.13;;;9.35;91.31
3428;BME280;1727;42.624;23.406;2022-11-12T05:03:04;96167.97;;;9.29;91.87
3428;BME280;1727;42.624;23.406;2022-11-12T05:05:31;96176.84;;;9.27;91.77
3428;BME280;1727;42.624;23.406;2022-11-12T05:07:58;96175.16;;;9.26;92.55
3428;BME280;1727;42.624;23.406;2022-11-12T05:10:26;96181.06;;;9.29;93.25
3428;BME280;1727;42.624;23.406;2022-11-12T05:12:53;96180.41;;;9.26;92.80
3428;BME280;1727;42.624;23.406;2022-11-12T05:15:20;96185.50;;;9.13;92.92
3428;BME280;1727;42.624;23.406;2022-11-12T05:17:47;96186.53;;;9.11;93.46
3428;BME280;1727;42.624;23.406;2022-11-12T05:20:16;96187.72;;;9.05;93.43
3428;BME280;1727;42.624;23.406;2022-11-12T05:22:43;96188.94;;;8.99;93.84
3428;BME280;1727;42.624;23.406;2022-11-12T05:25:10;96186.66;;;8.93;93.93
3428;BME280;1727;42.624;23.406;2022-11-12T05:27:38;96191.97;;;8.92;94.12
3428;BME280;1727;42.624;23.406;2022-11-12T05:30:05;96188.34;;;8.94;94.54
3428;BME280;1727;42.624;23.406;2022-11-12T05:32:32;96193.66;;;8.93;94.70
3428;BME280;1727;42.624;23.406;2022-11-12T05:34:59;96196.88;;;8.98;94.40
3428;BME280;1727;42.624;23.406;2022-11-12T05:37:26;96196.88;;;8.98;94.42
3428;BME280;1727;42.624;23.406;2022-11-12T05:39:52;96194.16;;;8.99;94.93
3428;BME280;1727;42.624;23.406;2022-11-12T05:42:19;96198.22;;;9.05;94.81
3428;BME280;1727;42.624;23.406;2022-11-12T05:44:47;96191.59;;;9.14;94.12
3428;BME280;1727;42.624;23.406;2022-11-12T05:47:14;96197.97;;;9.24;94.27
3428;BME280;1727;42.624;23.406;2022-11-12T05:49:41;96198.09;;;9.37;94.25
3428;BME280;1727;42.624;23.406;2022-11-12T05:52:07;96201.84;;;9.47;92.81
3428;BME280;1727;42.624;23.406;2022-11-12T05:54:34;96200.38;;;9.57;92.99
3428;BME280;1727;42.624;23.406;2022-11-12T05:57:01;96197.41;;;9.63;91.71
3428;BME280;1727;42.624;23.406;2022-11-12T05:59:28;96209.94;;;9.72;91.00
3428;BME280;1727;42.624;23.406;2022-11-12T06:01:56;96202.81;;;9.74;90.71
3428;BME280;1727;42.624;23.406;2022-11-12T06:04:23;96207.69;;;9.80;90.15
3428;BME280;1727;42.624;23.406;2022-11-12T06:06:50;96218.28;;;9.93;90.04
3428;BME280;1727;42.624;23.406;2022-11-12T06:09:17;96218.56;;;10.03;90.02
3428;BME280;1727;42.624;23.406;2022-11-12T06:11:44;96224.75;;;10.16;89.89
3428;BME280;1727;42.624;23.406;2022-11-12T06:14:11;96219.16;;;10.22;88.78
3428;BME280;1727;42.624;23.406;2022-11-12T06:16:37;96222.50;;;10.24;88.85
3428;BME280;1727;42.624;23.406;2022-11-12T06:19:06;96223.72;;;10.33;88.25
3428;BME280;1727;42.624;23.406;2022-11-12T06:21:32;96227.09;;;10.35;87.67
3428;BME280;1727;42.624;23.406;2022-11-12T06:23:59;96231.59;;;10.33;87.60
3428;BME280;1727;42.624;23.406;2022-11-12T06:26:28;96227.81;;;10.37;87.96
3428;BME280;1727;42.624;23.406;2022-11-12T06:28:55;96223.63;;;10.34;86.89
3428;BME280;1727;42.624;23.406;2022-11-12T06:31:22;96229.44;;;10.25;88.12
3428;BME280;1727;42.624;23.406;2022-11-12T06:33:49;96217.63;;;10.18;87.71
3428;BME280;1727;42.624;23.406;2022-11-12T06:36:19;96225.59;;;10.16;88.03
3428;BME280;1727;42.624;23.406;2022-11-12T06:38:46;96223.06;;;10.15;88.41
3428;BME280;1727;42.624;23.406;2022-11-12T06:41:13;96228.97;;;10.18;88.12
3428;BME280;1727;42.624;23.406;2022-11-12T06:43:41;96233.00;;;10.24;87.26
3428;BME280;1727;42.624;23.406;2022-11-12T06:46:11;96236.28;;;10.28;87.42
3428;BME280;1727;42.624;23.406;2022-11-12T06:48:38;96242.38;;;10.28;88.35
3428;BME280;1727;42.624;23.406;2022-11-12T06:51:08;96244.16;;;10.28;87.98
3428;BME280;1727;42.624;23.406;2022-11-12T06:53:36;96236.38;;;10.26;87.96
3428;BME280;1727;42.624;23.406;2022-11-12T06:56:04;96236.00;;;10.32;88.39
3428;BME280;1727;42.624;23.406;2022-11-12T06:58:31;96233.91;;;10.37;87.69
3428;BME280;1727;42.624;23.406;2022-11-12T07:01:04;96230.84;;;10.45;88.47
3428;BME280;1727;42.624;23.406;2022-11-12T07:03:31;96228.47;;;10.54;87.93
3428;BME280;1727;42.624;23.406;2022-11-12T07:06:02;96233.66;;;10.69;88.82
3428;BME280;1727;42.624;23.406;2022-11-12T07:08:29;96231.03;;;10.83;88.68
3428;BME280;1727;42.624;23.406;2022-11-12T07:10:57;96227.03;;;10.90;87.65
3428;BME280;1727;42.624;23.406;2022-11-12T07:13:24;96225.31;;;11.03;86.45
3428;BME280;1727;42.624;23.406;2022-11-12T07:15:51;96236.91;;;11.13;83.85
3428;BME280;1727;42.624;23.406;2022-11-12T07:18:18;96239.75;;;11.23;84.75
3428;BME280;1727;42.624;23.406;2022-11-12T07:20:44;96233.47;;;11.26;82.28
3428;BME280;1727;42.624;23.406;2022-11-12T07:23:11;96232.66;;;11.38;81.11
3428;BME280;1727;42.624;23.406;2022-11-12T07:25:38;96232.25;;;11.44;79.30
3428;BME280;1727;42.624;23.406;2022-11-12T07:28:06;96234.44;;;11.37;76.87
3428;BME280;1727;42.624;23.406;2022-11-12T07:30:33;96242.75;;;11.44;76.52
3428;BME280;1727;42.624;23.406;2022-11-12T07:32:59;96242.34;;;11.50;75.11
3428;BME280;1727;42.624;23.406;2022-11-12T07:35:26;96246.69;;;11.64;75.62
3428;BME280;1727;42.624;23.406;2022-11-12T07:37:53;96245.84;;;11.63;73.27
3428;BME280;1727;42.624;23.406;2022-11-12T07:40:20;96247.34;;;11.67;72.30
3428;BME280;1727;42.624;23.406;2022-11-12T07:42:46;96254.22;;;11.56;73.05
3428;BME280;1727;42.624;23.406;2022-11-12T07:45:15;96245.50;;;11.55;73.01
3428;BME280;1727;42.624;23.406;2022-11-12T07:47:41;96244.50;;;11.58;72.89
3428;BME280;1727;42.624;23.406;2022-11-12T07:50:09;96247.13;;;11.58;72.07
3428;BME280;1727;42.624;23.406;2022-11-12T07:52:35;96247.53;;;11.64;74.17
3428;BME280;1727;42.624;23.406;2022-11-12T07:55:03;96246.50;;;11.67;73.02
3428;BME280;1727;42.624;23.406;2022-11-12T07:57:31;96253.00;;;11.74;73.00
3428;BME280;1727;42.624;23.406;2022-11-12T07:59:58;96254.81;;;11.73;72.73
3428;BME280;1727;42.624;23.406;2022-11-12T08:02:26;96256.38;;;11.63;72.77
3428;BME280;1727;42.624;23.406;2022-11-12T08:04:53;96260.44;;;11.15;72.22
3428;BME280;1727;42.624;23.406;2022-11-12T08:07:19;96262.97;;;10.90;74.01
3428;BME280;1727;42.624;23.406;2022-11-12T08:09:46;96258.91;;;10.71;75.17
3428;BME280;1727;42.624;23.406;2022-11-12T08:12:13;96261.75;;;10.54;76.78
3428;BME280;1727;42.624;23.406;2022-11-12T08:14:40;96258.38;;;10.38;75.50
3428;BME280;1727;42.624;23.406;2022-11-12T08:17:06;96253.22;;;10.36;76.10
3428;BME280;1727;42.624;23.406;2022-11-12T08:19:35;96264.66;;;10.49;77.21
3428;BME280;1727;42.624;23.406;2022-11-12T08:22:01;96273.28;;;10.51;76.46
3428;BME280;1727;42.624;23.406;2022-11-12T08:24:28;96268.19;;;10.63;76.17
3428;BME280;1727;42.624;23.406;2022-11-12T08:26:55;96263.31;;;10.71;76.29
3428;BME280;1727;42.624;23.406;2022-11-12T08:29:22;96263.63;;;10.38;77.22
3428;BME280;1727;42.624;23.406;2022-11-12T08:31:48;96268.41;;;10.17;77.29
3428;BME280;1727;42.624;23.406;2022-11-12T08:34:15;96274.69;;;10.43;78.16
3428;BME280;1727;42.624;23.406;2022-11-12T08:36:43;96260.31;;;10.63;77.72
3428;BME280;1727;42.624;23.406;2022-11-12T08:39:10;96271.09;;;10.58;77.86
3428;BME280;1727;42.624;23.406;2022-11-12T08:41:37;96268.09;;;10.64;77.18
3428;BME280;1727;42.624;23.406;2022-11-12T08:44:06;96273.44;;;10.77;77.13
3428;BME280;1727;42.624;23.406;2022-11-12T08:46:33;96271.84;;;10.74;77.06
3428;BME280;1727;42.624;23.406;2022-11-12T08:49:00;96270.34;;;10.70;75.18
3428;BME280;1727;42.624;23.406;2022-11-12T08:51:27;96275.41;;;10.73;75.71
3428;BME280;1727;42.624;23.406;2022-11-12T08:53:55;96271.75;;;10.76;76.15
3428;BME280;1727;42.624;23.406;2022-11-12T08:56:22;96269.56;;;10.82;74.92
3428;BME280;1727;42.624;23.406;2022-11-12T08:58:48;96270.91;;;10.75;75.65
3428;BME280;1727;42.624;23.406;2022-11-12T09:01:15;96265.66;;;10.61;74.18
3428;BME280;1727;42.624;23.406;2022-11-12T09:03:42;96261.44;;;10.73;73.85
3428;BME280;1727;42.624;23.406;2022-11-12T09:06:09;96267.13;;;10.79;75.64
3428;BME280;1727;42.624;23.406;2022-11-12T09:08:36;96264.59;;;10.78;74.14
3428;BME280;1727;42.624;23.406;2022-11-12T09:11:08;96250.66;;;11.04;74.89
3428;BME280;1727;42.624;23.406;2022-11-12T09:13:35;96255.84;;;11.18;72.86
3428;BME280;1727;42.624;23.406;2022-11-12T09:16:03;96258.72;;;11.28;73.28
3428;BME280;1727;42.624;23.406;2022-11-12T09:18:31;96256.56;;;11.21;72.55
3428;BME280;1727;42.624;23.406;2022-11-12T09:20:59;96266.53;;;11.15;73.06
3428;BME280;1727;42.624;23.406;2022-11-12T09:23:26;96260.22;;;11.05;73.32
3428;BME280;1727;42.624;23.406;2022-11-12T09:25:54;96263.13;;;11.01;72.63
3428;BME280;1727;42.624;23.406;2022-11-12T09:28:22;96264.59;;;10.78;73.56
3428;BME280;1727;42.624;23.406;2022-11-12T09:30:50;96264.81;;;10.61;75.61
3428;BME280;1727;42.624;23.406;2022-11-12T09:33:19;96251.97;;;10.70;75.64
3428;BME280;1727;42.624;23.406;2022-11-12T09:35:46;96258.81;;;10.73;76.49
3428;BME280;1727;42.624;23.406;2022-11-12T09:38:14;96262.75;;;10.66;76.08
3428;BME280;1727;42.624;23.406;2022-11-12T09:41:10;96264.16;;;10.57;76.20
3428;BME280;1727;42.624;23.406;2022-11-12T09:43:45;96261.19;;;10.49;77.61
3428;BME280;1727;42.624;23.406;2022-11-12T09:46:22;96264.47;;;10.52;76.15
3428;BME280;1727;42.624;23.406;2022-11-12T09:48:54;96252.13;;;10.67;75.51
3428;BME280;1727;42.624;23.406;2022-11-12T09:51:24;96260.16;;;10.51;73.80
3428;BME280;1727;42.624;23.406;2022-11-12T09:53:55;96263.88;;;10.62;73.83
3428;BME280;1727;42.624;23.406;2022-11-12T09:56:23;96259.66;;;10.73;74.11
3428;BME280;1727;42.624;23.406;2022-11-12T09:58:52;96264.44;;;10.94;73.34
3428;BME280;1727;42.624;23.406;2022-11-12T10:01:23;96262.31;;;11.00;72.56
3428;BME280;1727;42.624;23.406;2022-11-12T10:04:06;96261.50;;;11.12;72.01
3428;BME280;1727;42.624;23.406;2022-11-12T10:06:49;96265.94;;;11.25;71.79
3428;BME280;1727;42.624;23.406;2022-11-12T10:09:21;96263.88;;;11.30;71.89
3428;BME280;1727;42.624;23.406;2022-11-12T10:11:57;96268.00;;;11.46;70.69
3428;BME280;1727;42.624;23.406;2022-11-12T10:14:58;96261.63;;;11.63;72.21
3428;BME280;1727;42.624;23.406;2022-11-12T10:17:51;96256.94;;;11.81;72.11
3428;BME280;1727;42.624;23.406;2022-11-12T10:20:22;96250.50;;;11.85;71.90
3428;BME280;1727;42.624;23.406;2022-11-12T10:23:00;96262.31;;;11.92;71.95
3428;BME280;1727;42.624;23.406;2022-11-12T10:25:32;96262.44;;;11.91;72.56
3428;BME280;1727;42.624;23.406;2022-11-12T10:28:09;96250.34;;;11.88;72.64
3428;BME280;1727;42.624;23.406;2022-11-12T10:30:41;96264.22;;;11.90;72.35
3428;BME280;1727;42.624;23.406;2022-11-12T10:33:13;96262.66;;;11.88;71.88
3428;BME280;1727;42.624;23.406;2022-11-12T10:35:40;96258.34;;;11.87;72.96
3428;BME280;1727;42.624;23.406;2022-11-12T10:38:12;96262.81;;;11.85;72.94
3428;BME280;1727;42.624;23.406;2022-11-12T10:40:40;96259.00;;;11.76;73.64
3428;BME280;1727;42.624;23.406;2022-11-12T10:43:20;96258.38;;;11.72;73.44
3428;BME280;1727;42.624;23.406;2022-11-12T10:45:49;96263.53;;;11.74;73.84
3428;BME280;1727;42.624;23.406;2022-11-12T10:48:24;96264.16;;;11.77;74.61
3428;BME280;1727;42.624;23.406;2022-11-12T10:50:58;96258.28;;;11.74;75.69
3428;BME280;1727;42.624;23.406;2022-11-12T10:53:31;96257.91;;;11.53;76.21
3428;BME280;1727;42.624;23.406;2022-11-12T10:55:59;96260.09;;;11.34;76.25
3428;BME280;1727;42.624;23.406;2022-11-12T10:58:26;96259.34;;;11.32;74.58
3428;BME280;1727;42.624;23.406;2022-11-12T11:01:00;96253.19;;;11.18;76.05
3428;BME280;1727;42.624;23.406;2022-11-12T11:03:31;96253.50;;;11.14;76.42
3428;BME280;1727;42.624;23.406;2022-11-12T11:06:01;96253.94;;;11.21;76.07
3428;BME280;1727;42.624;23.406;2022-11-12T11:08:34;96255.38;;;10.99;76.87
3428;BME280;1727;42.624;23.406;2022-11-12T11:11:21;96255.34;;;10.72;76.49
3428;BME280;1727;42.624;23.406;2022-11-12T11:13:49;96246.72;;;10.97;76.52
3428;BME280;1727;42.624;23.406;2022-11-12T11:16:19;96247.84;;;10.66;75.95
3428;BME280;1727;42.624;23.406;2022-11-12T11:18:49;96240.22;;;10.76;77.84
3428;BME280;1727;42.624;23.406;2022-11-12T11:21:31;96243.50;;;10.79;77.22
3428;BME280;1727;42.624;23.406;2022-11-12T11:24:12;96247.22;;;10.90;76.17
3428;BME280;1727;42.624;23.406;2022-11-12T11:26:51;96252.03;;;10.83;75.67
3428;BME280;1727;42.624;23.406;2022-11-12T11:29:42;96245.09;;;10.68;76.91
3428;BME280;1727;42.624;23.406;2022-11-12T11:32:25;96246.38;;;10.89;76.35
3428;BME280;1727;42.624;23.406;2022-11-12T11:35:04;96246.03;;;10.67;76.33
3428;BME280;1727;42.624;23.406;2022-11-12T11:37:41;96250.25;;;10.69;77.13
3428;BME280;1727;42.624;23.406;2022-11-12T11:40:19;96243.16;;;10.71;77.36
3428;BME280;1727;42.624;23.406;2022-11-12T11:42:59;96244.00;;;10.72;78.09
3428;BME280;1727;42.624;23.406;2022-11-12T11:45:47;96247.16;;;10.77;77.57
3428;BME280;1727;42.624;23.406;2022-11-12T11:48:38;96246.22;;;10.78;76.54
3428;BME280;1727;42.624;23.406;2022-11-12T11:51:22;96249.81;;;10.63;76.58
3428;BME280;1727;42.624;23.406;2022-11-12T11:53:56;96242.22;;;10.58;77.23
3428;BME280;1727;42.624;23.406;2022-11-12T11:56:31;96242.38;;;10.69;76.20
3428;BME280;1727;42.624;23.406;2022-11-12T11:59:09;96245.34;;;10.92;76.46
3428;BME280;1727;42.624;23.406;2022-11-12T12:01:56;96244.28;;;10.94;75.72
3428;BME280;1727;42.624;23.406;2022-11-12T12:04:43;96238.69;;;11.13;75.27
3428;BME280;1727;42.624;23.406;2022-11-12T12:07:20;96236.50;;;11.20;74.57
3428;BME280;1727;42.624;23.406;2022-11-12T12:09:58;96233.09;;;11.32;73.96
3428;BME280;1727;42.624;23.406;2022-11-12T12:12:41;96221.16;;;11.13;75.08
3428;BME280;1727;42.624;23.406;2022-11-12T12:15:29;96226.97;;;11.31;75.40
3428;BME280;1727;42.624;23.406;2022-11-12T12:18:05;96230.44;;;11.32;74.29
3428;BME280;1727;42.624;23.406;2022-11-12T12:20:41;96229.22;;;11.10;74.67
3428;BME280;1727;42.624;23.406;2022-11-12T12:23:16;96221.38;;;11.23;75.12
3428;BME280;1727;42.624;23.406;2022-11-12T12:25:45;96224.41;;;11.17;76.64
3428;BME280;1727;42.624;23.406;2022-11-12T12:28:19;96228.47;;;11.35;75.25
3428;BME280;1727;42.624;23.406;2022-11-12T12:30:51;96226.94;;;11.18;75.40
3428;BME280;1727;42.624;23.406;2022-11-12T12:33:28;96223.66;;;11.15;76.34
3428;BME280;1727;42.624;23.406;2022-11-12T12:36:00;96229.97;;;11.12;75.69
3428;BME280;1727;42.624;23.406;2022-11-12T12:38:32;96227.66;;;11.08;75.90
3428;BME280;1727;42.624;23.406;2022-11-12T12:41:09;96221.38;;;11.23;76.31
3428;BME280;1727;42.624;23.406;2022-11-12T12:43:42;96234.97;;;11.42;76.01
3428;BME280;1727;42.624;23.406;2022-11-12T12:46:12;96237.94;;;11.38;78.78
3428;BME280;1727;42.624;23.406;2022-11-12T12:48:42;96236.84;;;11.28;79.54
3428;BME280;1727;42.624;23.406;2022-11-12T12:51:10;96236.72;;;10.90;81.69
3428;BME280;1727;42.624;23.406;2022-11-12T12:53:37;96235.66;;;10.65;83.53
3428;BME280;1727;42.624;23.406;2022-11-12T12:56:05;96226.38;;;10.74;83.39
3428;BME280;1727;42.624;23.406;2022-11-12T12:58:52;96230.78;;;10.73;85.44
3428;BME280;1727;42.624;23.406;2022-11-12T13:01:27;96217.63;;;10.46;84.35
3428;BME280;1727;42.624;23.406;2022-11-12T13:03:57;96232.03;;;10.39;86.53
3428;BME280;1727;42.624;23.406;2022-11-12T13:06:31;96228.97;;;10.18;87.51
3428;BME280;1727;42.624;23.406;2022-11-12T13:09:02;96232.72;;;10.14;88.75
3428;BME280;1727;42.624;23.406;2022-11-12T13:11:47;96228.22;;;10.16;88.56
3428;BME280;1727;42.624;23.406;2022-11-12T13:14:52;96235.03;;;10.19;89.09
3428;BME280;1727;42.624;23.406;2022-11-12T13:17:43;96240.88;;;10.24;89.76
3428;BME280;1727;42.624;23.406;2022-11-12T13:20:40;96233.63;;;9.99;91.46
3428;BME280;1727;42.624;23.406;2022-11-12T13:23:11;96239.34;;;10.06;91.05
3428;BME280;1727;42.624;23.406;2022-11-12T13:32:28;96240.81;;;9.81;93.52
3428;BME280;1727;42.624;23.406;2022-11-12T13:35:27;96252.81;;;9.71;95.19